PWSweather.com
Personal Weather Stations
Station Observations

ChardChardGB

Lat: 50.877408, Lon: -2.94964741

Elevation: 341

Station Type: WS3083

http://www.merriott-astro.co.uk/weather/index.htm

High Low Average
Temperature 66.7°F19.3°C 50.7°F10.4°C 57.8°F14.3°C
Dew Point 60.2°F15.7°C 45.2°F7.3°C 50.1°F10.1°C
Winds 19.3 mph 31.1 kmh Calm Calm 8.0 mph SW12.9 kmh SW
Wind Gusts 29.8 mph48.0 kmh -- 12.0 mph19.3 kmh
Humidity 100% 49% 77%
Pressure 30.01 in1016.3 mb 29.65 in1004.1 mb -
Precipitation 0.25 in6.4 mm - -
Hour Temp Dew Point Humidity Winds Wind Gusts Pressure Precip Precip Rate Daily Precip Total
12:00 AM 54.1°F12.3°C 49.7°F9.8°C 85% 5.5 mph W8.9 kmh W 7.6 mph12.2 kmh 29.87 in1011.5 mb 0.00 in0.0 mm 0.00 in0.0 mm 0.00 in0.0 mm
12:10 AM 54.3°F12.4°C 49.9°F9.9°C 85% 5.4 mph WSW8.7 kmh WSW 8.3 mph13.4 kmh 29.87 in1011.5 mb 0.00 in0.0 mm 0.00 in0.0 mm 0.00 in0.0 mm
12:20 AM 54.3°F12.4°C 49.6°F9.8°C 84% 4.6 mph WNW7.4 kmh WNW 6.0 mph9.7 kmh 29.88 in1011.9 mb 0.00 in0.0 mm 0.00 in0.0 mm 0.00 in0.0 mm
12:30 AM 54.0°F12.2°C 49.2°F9.6°C 84% 4.1 mph W6.6 kmh W 5.4 mph8.7 kmh 29.88 in1011.9 mb 0.00 in0.0 mm 0.00 in0.0 mm 0.00 in0.0 mm
12:40 AM 53.8°F12.1°C 49.1°F9.5°C 84% 5.1 mph W8.2 kmh W 6.9 mph11.1 kmh 29.88 in1011.9 mb 0.00 in0.0 mm 0.00 in0.0 mm 0.00 in0.0 mm
12:50 AM 53.6°F12.0°C 49.2°F9.6°C 85% 5.0 mph WNW8.0 kmh WNW 7.6 mph12.2 kmh 29.89 in1012.2 mb 0.00 in0.0 mm 0.00 in0.0 mm 0.00 in0.0 mm
01:00 AM 53.6°F12.0°C 49.2°F9.6°C 85% 3.7 mph WSW6.0 kmh WSW 5.4 mph8.7 kmh 29.88 in1011.9 mb 0.00 in0.0 mm 0.00 in0.0 mm 0.00 in0.0 mm
01:10 AM 53.4°F11.9°C 49.0°F9.4°C 85% 4.2 mph WSW6.8 kmh WSW 6.0 mph9.7 kmh 29.89 in1012.2 mb 0.00 in0.0 mm 0.00 in0.0 mm 0.00 in0.0 mm
01:20 AM 53.4°F11.9°C 49.0°F9.4°C 85% 4.2 mph WSW6.8 kmh WSW 6.9 mph11.1 kmh 29.89 in1012.2 mb 0.00 in0.0 mm 0.00 in0.0 mm 0.00 in0.0 mm
01:30 AM 53.4°F11.9°C 49.0°F9.4°C 85% 3.8 mph W6.1 kmh W 5.4 mph8.7 kmh 29.89 in1012.2 mb 0.00 in0.0 mm 0.00 in0.0 mm 0.00 in0.0 mm
01:40 AM 53.2°F11.8°C 48.9°F9.4°C 85% 3.9 mph WNW6.3 kmh WNW 6.0 mph9.7 kmh 29.89 in1012.2 mb 0.00 in0.0 mm 0.00 in0.0 mm 0.00 in0.0 mm
01:50 AM 53.1°F11.7°C 48.4°F9.1°C 84% 3.9 mph W6.3 kmh W 5.4 mph8.7 kmh 29.90 in1012.5 mb 0.00 in0.0 mm 0.00 in0.0 mm 0.00 in0.0 mm
02:00 AM 52.9°F11.6°C 48.2°F9.0°C 84% 3.9 mph WSW6.3 kmh WSW 5.4 mph8.7 kmh 29.90 in1012.5 mb 0.00 in0.0 mm 0.00 in0.0 mm 0.00 in0.0 mm
02:10 AM 52.9°F11.6°C 48.2°F9.0°C 84% 5.2 mph WNW8.4 kmh WNW 9.8 mph15.8 kmh 29.90 in1012.5 mb 0.00 in0.0 mm 0.00 in0.0 mm 0.00 in0.0 mm
02:20 AM 52.9°F11.6°C 48.2°F9.0°C 84% 5.0 mph W8.0 kmh W 9.2 mph14.8 kmh 29.90 in1012.5 mb 0.00 in0.0 mm 0.00 in0.0 mm 0.00 in0.0 mm
02:30 AM 52.9°F11.6°C 48.2°F9.0°C 84% 4.1 mph WNW6.6 kmh WNW 6.9 mph11.1 kmh 29.91 in1012.9 mb 0.00 in0.0 mm 0.00 in0.0 mm 0.00 in0.0 mm
02:40 AM 53.1°F11.7°C 48.4°F9.1°C 84% 4.4 mph WNW7.1 kmh WNW 5.4 mph8.7 kmh 29.91 in1012.9 mb 0.00 in0.0 mm 0.00 in0.0 mm 0.00 in0.0 mm
02:50 AM 53.1°F11.7°C 48.4°F9.1°C 84% 4.2 mph W6.8 kmh W 7.6 mph12.2 kmh 29.91 in1012.9 mb 0.00 in0.0 mm 0.00 in0.0 mm 0.00 in0.0 mm
03:00 AM 53.1°F11.7°C 48.0°F8.9°C 83% 5.4 mph W8.7 kmh W 10.7 mph17.2 kmh 29.91 in1012.9 mb 0.00 in0.0 mm 0.00 in0.0 mm 0.00 in0.0 mm
03:10 AM 52.5°F11.4°C 47.5°F8.6°C 83% 1.7 mph WSW2.7 kmh WSW 2.2 mph3.5 kmh 29.91 in1012.9 mb 0.00 in0.0 mm 0.00 in0.0 mm 0.00 in0.0 mm
03:20 AM 52.2°F11.2°C 47.2°F8.4°C 83% 1.9 mph SSE3.1 kmh SSE 2.2 mph3.5 kmh 29.92 in1013.2 mb 0.00 in0.0 mm 0.00 in0.0 mm 0.00 in0.0 mm
03:30 AM 52.0°F11.1°C 47.6°F8.7°C 85% 2.5 mph SW4.0 kmh SW 3.1 mph5.0 kmh 29.91 in1012.9 mb 0.00 in0.0 mm 0.00 in0.0 mm 0.00 in0.0 mm
03:40 AM 51.6°F10.9°C 47.3°F8.5°C 85% 1.1 mph WSW1.8 kmh WSW 2.2 mph3.5 kmh 29.92 in1013.2 mb 0.00 in0.0 mm 0.00 in0.0 mm 0.00 in0.0 mm
03:50 AM 51.4°F10.8°C 47.4°F8.6°C 86% 1.7 mph SSE2.7 kmh SSE 3.8 mph6.1 kmh 29.93 in1013.5 mb 0.00 in0.0 mm 0.00 in0.0 mm 0.00 in0.0 mm
04:00 AM 51.4°F10.8°C 47.4°F8.6°C 86% 2.5 mph SW4.0 kmh SW 5.4 mph8.7 kmh 29.93 in1013.5 mb 0.00 in0.0 mm 0.00 in0.0 mm 0.00 in0.0 mm
04:10 AM 51.4°F10.8°C 47.4°F8.6°C 86% 0.8 mph S1.3 kmh S 3.8 mph6.1 kmh 29.92 in1013.2 mb 0.00 in0.0 mm 0.00 in0.0 mm 0.00 in0.0 mm
04:20 AM 51.6°F10.9°C 47.6°F8.7°C 86% 3.0 mph SW4.8 kmh SW 5.4 mph8.7 kmh 29.93 in1013.5 mb 0.00 in0.0 mm 0.00 in0.0 mm 0.00 in0.0 mm
04:30 AM 51.6°F10.9°C 47.6°F8.7°C 86% 1.3 mph ESE2.1 kmh ESE 3.8 mph6.1 kmh 29.93 in1013.5 mb 0.00 in0.0 mm 0.00 in0.0 mm 0.00 in0.0 mm
04:40 AM 51.4°F10.8°C 47.4°F8.6°C 86% 0.1 mph W0.2 kmh W 1.6 mph2.6 kmh 29.93 in1013.5 mb 0.00 in0.0 mm 0.00 in0.0 mm 0.00 in0.0 mm
04:50 AM 51.1°F10.6°C 47.0°F8.3°C 86% 0.2 mph WSW0.3 kmh WSW 1.6 mph2.6 kmh 29.94 in1013.9 mb 0.00 in0.0 mm 0.00 in0.0 mm 0.00 in0.0 mm
05:00 AM 50.9°F10.5°C 46.9°F8.3°C 86% 0.5 mph SW0.8 kmh SW 2.2 mph3.5 kmh 29.93 in1013.5 mb 0.00 in0.0 mm 0.00 in0.0 mm 0.00 in0.0 mm
05:10 AM 51.1°F10.6°C 47.4°F8.6°C 87% 2.3 mph SSW3.7 kmh SSW 6.0 mph9.7 kmh 29.94 in1013.9 mb 0.00 in0.0 mm 0.00 in0.0 mm 0.00 in0.0 mm
05:20 AM 51.3°F10.7°C 47.2°F8.4°C 86% 1.7 mph S2.7 kmh S 3.8 mph6.1 kmh 29.95 in1014.2 mb 0.00 in0.0 mm 0.00 in0.0 mm 0.00 in0.0 mm
05:30 AM 50.9°F10.5°C 46.6°F8.1°C 85% 1.2 mph SSE1.9 kmh SSE 3.1 mph5.0 kmh 29.95 in1014.2 mb 0.00 in0.0 mm 0.00 in0.0 mm 0.00 in0.0 mm
05:40 AM 50.9°F10.5°C 46.6°F8.1°C 85% 2.5 mph SSE4.0 kmh SSE 3.8 mph6.1 kmh 29.95 in1014.2 mb 0.00 in0.0 mm 0.00 in0.0 mm 0.00 in0.0 mm
05:50 AM 50.9°F10.5°C 46.9°F8.3°C 86% 1.5 mph S2.4 kmh S 3.8 mph6.1 kmh 29.95 in1014.2 mb 0.00 in0.0 mm 0.00 in0.0 mm 0.00 in0.0 mm
06:00 AM 50.9°F10.5°C 46.9°F8.3°C 86% 2.8 mph S4.5 kmh S 4.5 mph7.2 kmh 29.95 in1014.2 mb 0.00 in0.0 mm 0.00 in0.0 mm 0.00 in0.0 mm
06:10 AM 50.7°F10.4°C 46.7°F8.2°C 86% Calm Calm -- 29.96 in1014.6 mb 0.00 in0.0 mm 0.00 in0.0 mm 0.00 in0.0 mm
06:20 AM 50.7°F10.4°C 46.7°F8.2°C 86% 0.3 mph S0.5 kmh S 2.2 mph3.5 kmh 29.96 in1014.6 mb 0.00 in0.0 mm 0.00 in0.0 mm 0.00 in0.0 mm
06:30 AM 50.7°F10.4°C 47.0°F8.3°C 87% 0.2 mph S0.3 kmh S 2.2 mph3.5 kmh 29.96 in1014.6 mb 0.00 in0.0 mm 0.00 in0.0 mm 0.00 in0.0 mm
06:40 AM 51.8°F11.0°C 48.1°F8.9°C 87% 0.9 mph SSE1.4 kmh SSE 2.2 mph3.5 kmh 29.97 in1014.9 mb 0.00 in0.0 mm 0.00 in0.0 mm 0.00 in0.0 mm
06:50 AM 52.9°F11.6°C 48.8°F9.3°C 86% 1.0 mph S1.6 kmh S 3.8 mph6.1 kmh 29.98 in1015.2 mb 0.00 in0.0 mm 0.00 in0.0 mm 0.00 in0.0 mm
07:00 AM 53.8°F12.1°C 49.4°F9.7°C 85% 0.4 mph SE0.6 kmh SE 2.2 mph3.5 kmh 29.97 in1014.9 mb 0.00 in0.0 mm 0.00 in0.0 mm 0.00 in0.0 mm
07:10 AM 57.2°F14.0°C 50.8°F10.4°C 79% Calm Calm -- 29.98 in1015.2 mb 0.00 in0.0 mm 0.00 in0.0 mm 0.00 in0.0 mm
07:20 AM 58.8°F14.9°C 50.2°F10.1°C 73% 0.3 mph S0.5 kmh S 2.2 mph3.5 kmh 29.98 in1015.2 mb 0.00 in0.0 mm 0.00 in0.0 mm 0.00 in0.0 mm
07:30 AM 59.5°F15.3°C 50.1°F10.1°C 71% 3.7 mph S6.0 kmh S 6.0 mph9.7 kmh 29.98 in1015.2 mb 0.00 in0.0 mm 0.00 in0.0 mm 0.00 in0.0 mm
07:40 AM 60.3°F15.7°C 50.5°F10.3°C 70% 2.6 mph SSW4.2 kmh SSW 4.5 mph7.2 kmh 29.98 in1015.2 mb 0.00 in0.0 mm 0.00 in0.0 mm 0.00 in0.0 mm
07:50 AM 60.4°F15.8°C 49.4°F9.7°C 67% 2.9 mph S4.7 kmh S 9.2 mph14.8 kmh 29.98 in1015.2 mb 0.00 in0.0 mm 0.00 in0.0 mm 0.00 in0.0 mm
08:00 AM 62.6°F17.0°C 51.5°F10.8°C 67% 1.5 mph S2.4 kmh S 3.1 mph5.0 kmh 29.98 in1015.2 mb 0.00 in0.0 mm 0.00 in0.0 mm 0.00 in0.0 mm
08:10 AM 62.4°F16.9°C 50.5°F10.3°C 65% 1.7 mph SSE2.7 kmh SSE 5.4 mph8.7 kmh 29.99 in1015.6 mb 0.00 in0.0 mm 0.00 in0.0 mm 0.00 in0.0 mm
08:20 AM 62.1°F16.7°C 49.8°F9.9°C 64% 2.5 mph W4.0 kmh W 5.4 mph8.7 kmh 29.99 in1015.6 mb 0.00 in0.0 mm 0.00 in0.0 mm 0.00 in0.0 mm
08:30 AM 63.5°F17.5°C 49.8°F9.9°C 61% 2.8 mph WSW4.5 kmh WSW 5.4 mph8.7 kmh 29.99 in1015.6 mb 0.00 in0.0 mm 0.00 in0.0 mm 0.00 in0.0 mm
08:40 AM 63.1°F17.3°C 49.9°F9.9°C 62% 3.9 mph W6.3 kmh W 8.3 mph13.4 kmh 29.99 in1015.6 mb 0.00 in0.0 mm 0.00 in0.0 mm 0.00 in0.0 mm
08:50 AM 62.8°F17.1°C 50.0°F10.0°C 63% 6.2 mph WNW10.0 kmh WNW 10.7 mph17.2 kmh 30.00 in1015.9 mb 0.00 in0.0 mm 0.00 in0.0 mm 0.00 in0.0 mm
09:00 AM 64.2°F17.9°C 49.2°F9.6°C 58% 4.3 mph WSW6.9 kmh WSW 8.3 mph13.4 kmh 30.00 in1015.9 mb 0.00 in0.0 mm 0.00 in0.0 mm 0.00 in0.0 mm
09:10 AM 61.5°F16.4°C 48.8°F9.3°C 63% 6.7 mph SW10.8 kmh SW 9.8 mph15.8 kmh 29.99 in1015.6 mb 0.00 in0.0 mm 0.00 in0.0 mm 0.00 in0.0 mm
09:20 AM 61.3°F16.3°C 49.1°F9.5°C 64% 6.6 mph WSW10.6 kmh WSW 9.8 mph15.8 kmh 30.00 in1015.9 mb 0.00 in0.0 mm 0.00 in0.0 mm 0.00 in0.0 mm
09:30 AM 62.6°F17.0°C 49.4°F9.7°C 62% 7.0 mph W11.3 kmh W 8.3 mph13.4 kmh 30.00 in1015.9 mb 0.00 in0.0 mm 0.00 in0.0 mm 0.00 in0.0 mm
09:40 AM 61.2°F16.2°C 48.1°F8.9°C 62% 8.1 mph NW13.0 kmh NW 11.4 mph18.3 kmh 30.01 in1016.3 mb 0.00 in0.0 mm 0.00 in0.0 mm 0.00 in0.0 mm
09:50 AM 63.5°F17.5°C 49.4°F9.7°C 60% 5.6 mph WSW9.0 kmh WSW 8.3 mph13.4 kmh 30.01 in1016.3 mb 0.00 in0.0 mm 0.00 in0.0 mm 0.00 in0.0 mm
10:00 AM 65.1°F18.4°C 47.6°F8.7°C 53% 6.5 mph SW10.5 kmh SW 10.7 mph17.2 kmh 30.01 in1016.3 mb 0.00 in0.0 mm 0.00 in0.0 mm 0.00 in0.0 mm
10:10 AM 63.5°F17.5°C 46.1°F7.8°C 53% 8.2 mph W13.2 kmh W 12.1 mph19.5 kmh 30.00 in1015.9 mb 0.00 in0.0 mm 0.00 in0.0 mm 0.00 in0.0 mm
10:20 AM 64.4°F18.0°C 46.9°F8.3°C 53% 5.0 mph SW8.0 kmh SW 6.0 mph9.7 kmh 30.00 in1015.9 mb 0.00 in0.0 mm 0.00 in0.0 mm 0.00 in0.0 mm
10:30 AM 63.0°F17.2°C 48.0°F8.9°C 58% 6.1 mph SW9.8 kmh SW 9.8 mph15.8 kmh 30.00 in1015.9 mb 0.00 in0.0 mm 0.00 in0.0 mm 0.00 in0.0 mm
10:40 AM 64.2°F17.9°C 47.7°F8.7°C 55% 5.0 mph WSW8.0 kmh WSW 7.6 mph12.2 kmh 30.00 in1015.9 mb 0.00 in0.0 mm 0.00 in0.0 mm 0.00 in0.0 mm
10:50 AM 66.7°F19.3°C 48.6°F9.2°C 52% 5.6 mph WSW9.0 kmh WSW 11.4 mph18.3 kmh 30.00 in1015.9 mb 0.00 in0.0 mm 0.00 in0.0 mm 0.00 in0.0 mm
11:00 AM 64.0°F17.8°C 45.6°F7.6°C 51% 4.7 mph SW7.6 kmh SW 7.6 mph12.2 kmh 30.01 in1016.3 mb 0.00 in0.0 mm 0.00 in0.0 mm 0.00 in0.0 mm
11:10 AM 61.9°F16.6°C 48.3°F9.1°C 61% 3.7 mph WSW6.0 kmh WSW 6.0 mph9.7 kmh 30.01 in1016.3 mb 0.00 in0.0 mm 0.00 in0.0 mm 0.00 in0.0 mm
11:20 AM 61.9°F16.6°C 47.9°F8.8°C 60% 4.3 mph W6.9 kmh W 13.0 mph20.9 kmh 30.01 in1016.3 mb 0.00 in0.0 mm 0.00 in0.0 mm 0.00 in0.0 mm
11:30 AM 61.7°F16.5°C 47.7°F8.7°C 60% 6.9 mph S11.1 kmh S 10.7 mph17.2 kmh 30.01 in1016.3 mb 0.00 in0.0 mm 0.00 in0.0 mm 0.00 in0.0 mm
11:40 AM 61.3°F16.3°C 47.3°F8.5°C 60% 7.0 mph W11.3 kmh W 9.2 mph14.8 kmh 30.01 in1016.3 mb 0.00 in0.0 mm 0.00 in0.0 mm 0.00 in0.0 mm
11:50 AM 62.1°F16.7°C 48.0°F8.9°C 60% 5.8 mph W9.3 kmh W 9.2 mph14.8 kmh 30.01 in1016.3 mb 0.00 in0.0 mm 0.00 in0.0 mm 0.00 in0.0 mm
12:00 PM 64.2°F17.9°C 47.2°F8.4°C 54% 5.2 mph WSW8.4 kmh WSW 9.2 mph14.8 kmh 30.01 in1016.3 mb 0.00 in0.0 mm 0.00 in0.0 mm 0.00 in0.0 mm
12:10 PM 65.5°F18.6°C 46.9°F8.3°C 51% 6.6 mph S10.6 kmh S 9.2 mph14.8 kmh 30.00 in1015.9 mb 0.00 in0.0 mm 0.00 in0.0 mm 0.00 in0.0 mm
12:20 PM 64.8°F18.2°C 45.2°F7.3°C 49% 8.7 mph SW14.0 kmh SW 13.0 mph20.9 kmh 30.00 in1015.9 mb 0.00 in0.0 mm 0.00 in0.0 mm 0.00 in0.0 mm
12:30 PM 62.8°F17.1°C 47.3°F8.5°C 57% 6.3 mph SW10.1 kmh SW 8.3 mph13.4 kmh 29.99 in1015.6 mb 0.00 in0.0 mm 0.00 in0.0 mm 0.00 in0.0 mm
12:40 PM 61.9°F16.6°C 47.9°F8.8°C 60% 4.8 mph W7.7 kmh W 9.2 mph14.8 kmh 30.00 in1015.9 mb 0.00 in0.0 mm 0.00 in0.0 mm 0.00 in0.0 mm
12:50 PM 64.2°F17.9°C 46.2°F7.9°C 52% 5.3 mph SW8.5 kmh SW 9.8 mph15.8 kmh 29.99 in1015.6 mb 0.00 in0.0 mm 0.00 in0.0 mm 0.00 in0.0 mm
01:00 PM 62.6°F17.0°C 47.6°F8.7°C 58% 5.1 mph SSW8.2 kmh SSW 8.3 mph13.4 kmh 29.99 in1015.6 mb 0.00 in0.0 mm 0.00 in0.0 mm 0.00 in0.0 mm
01:10 PM 62.2°F16.8°C 47.3°F8.5°C 58% 5.3 mph SSE8.5 kmh SSE 8.3 mph13.4 kmh 29.98 in1015.2 mb 0.00 in0.0 mm 0.00 in0.0 mm 0.00 in0.0 mm
01:20 PM 62.6°F17.0°C 49.0°F9.4°C 61% 4.4 mph S7.1 kmh S 9.8 mph15.8 kmh 29.97 in1014.9 mb 0.00 in0.0 mm 0.00 in0.0 mm 0.00 in0.0 mm
01:30 PM 63.9°F17.7°C 47.4°F8.6°C 55% 7.1 mph S11.4 kmh S 9.2 mph14.8 kmh 29.97 in1014.9 mb 0.00 in0.0 mm 0.00 in0.0 mm 0.00 in0.0 mm
01:40 PM 62.6°F17.0°C 49.4°F9.7°C 62% 5.1 mph SSW8.2 kmh SSW 8.3 mph13.4 kmh 29.98 in1015.2 mb 0.00 in0.0 mm 0.00 in0.0 mm 0.00 in0.0 mm
01:50 PM 62.4°F16.9°C 49.2°F9.6°C 62% 4.1 mph S6.6 kmh S 7.6 mph12.2 kmh 29.97 in1014.9 mb 0.00 in0.0 mm 0.00 in0.0 mm 0.00 in0.0 mm
02:00 PM 62.1°F16.7°C 48.0°F8.9°C 60% 4.9 mph S7.9 kmh S 7.6 mph12.2 kmh 29.97 in1014.9 mb 0.00 in0.0 mm 0.00 in0.0 mm 0.00 in0.0 mm
02:10 PM 63.0°F17.2°C 49.8°F9.9°C 62% 7.4 mph SW11.9 kmh SW 14.5 mph23.3 kmh 29.96 in1014.6 mb 0.00 in0.0 mm 0.00 in0.0 mm 0.00 in0.0 mm
02:20 PM 62.2°F16.8°C 49.9°F9.9°C 64% 11.1 mph S17.9 kmh S 18.3 mph29.5 kmh 29.95 in1014.2 mb 0.00 in0.0 mm 0.00 in0.0 mm 0.00 in0.0 mm
02:30 PM 64.4°F18.0°C 48.4°F9.1°C 56% 12.8 mph S20.6 kmh S 18.3 mph29.5 kmh 29.95 in1014.2 mb 0.00 in0.0 mm 0.00 in0.0 mm 0.00 in0.0 mm
02:40 PM 63.3°F17.4°C 48.8°F9.3°C 59% 12.7 mph SSW20.4 kmh SSW 19.0 mph30.6 kmh 29.95 in1014.2 mb 0.00 in0.0 mm 0.00 in0.0 mm 0.00 in0.0 mm
02:50 PM 62.4°F16.9°C 48.8°F9.3°C 61% 10.6 mph SW17.1 kmh SW 18.3 mph29.5 kmh 29.96 in1014.6 mb 0.00 in0.0 mm 0.00 in0.0 mm 0.00 in0.0 mm
03:00 PM 60.6°F15.9°C 50.0°F10.0°C 68% 11.4 mph S18.3 kmh S 15.9 mph25.6 kmh 29.96 in1014.6 mb 0.00 in0.0 mm 0.00 in0.0 mm 0.00 in0.0 mm
03:10 PM 60.1°F15.6°C 49.9°F9.9°C 69% 10.3 mph S16.6 kmh S 15.9 mph25.6 kmh 29.94 in1013.9 mb 0.00 in0.0 mm 0.00 in0.0 mm 0.00 in0.0 mm
03:20 PM 59.7°F15.4°C 49.9°F9.9°C 70% 12.3 mph S19.8 kmh S 15.9 mph25.6 kmh 29.94 in1013.9 mb 0.00 in0.0 mm 0.00 in0.0 mm 0.00 in0.0 mm
03:30 PM 59.5°F15.3°C 48.6°F9.2°C 67% 14.5 mph S23.3 kmh S 18.3 mph29.5 kmh 29.94 in1013.9 mb 0.00 in0.0 mm 0.00 in0.0 mm 0.00 in0.0 mm
03:40 PM 59.7°F15.4°C 48.8°F9.3°C 67% 11.0 mph SSW17.7 kmh SSW 15.2 mph24.5 kmh 29.93 in1013.5 mb 0.00 in0.0 mm 0.00 in0.0 mm 0.00 in0.0 mm
03:50 PM 59.4°F15.2°C 49.2°F9.6°C 69% 12.3 mph SSW19.8 kmh SSW 15.9 mph25.6 kmh 29.91 in1012.9 mb 0.00 in0.0 mm 0.00 in0.0 mm 0.00 in0.0 mm
04:00 PM 59.2°F15.1°C 48.2°F9.0°C 67% 12.3 mph S19.8 kmh S 17.4 mph28.0 kmh 29.91 in1012.9 mb 0.00 in0.0 mm 0.00 in0.0 mm 0.00 in0.0 mm
04:10 PM 58.1°F14.5°C 48.4°F9.1°C 70% 11.5 mph S18.5 kmh S 13.6 mph21.9 kmh 29.90 in1012.5 mb 0.00 in0.0 mm 0.00 in0.0 mm 0.00 in0.0 mm
04:20 PM 57.7°F14.3°C 48.8°F9.3°C 72% 11.4 mph SSW18.3 kmh SSW 15.9 mph25.6 kmh 29.88 in1011.9 mb 0.00 in0.0 mm 0.00 in0.0 mm 0.00 in0.0 mm
04:30 PM 57.4°F14.1°C 49.5°F9.7°C 75% 15.2 mph S24.5 kmh S 21.3 mph34.3 kmh 29.87 in1011.5 mb 0.00 in0.0 mm 0.00 in0.0 mm 0.00 in0.0 mm
04:40 PM 57.0°F13.9°C 50.6°F10.3°C 79% 12.3 mph S19.8 kmh S 19.0 mph30.6 kmh 29.86 in1011.2 mb 0.00 in0.0 mm 0.00 in0.0 mm 0.00 in0.0 mm
04:50 PM 56.8°F13.8°C 51.1°F10.6°C 81% 12.0 mph SSW19.3 kmh SSW 16.8 mph27.0 kmh 29.85 in1010.8 mb 0.00 in0.0 mm 0.00 in0.0 mm 0.00 in0.0 mm
05:00 PM 57.0°F13.9°C 51.3°F10.7°C 81% 15.1 mph SSE24.3 kmh SSE 20.6 mph33.2 kmh 29.84 in1010.5 mb 0.00 in0.0 mm 0.00 in0.0 mm 0.00 in0.0 mm
05:10 PM 57.0°F13.9°C 51.3°F10.7°C 81% 14.8 mph S23.8 kmh S 18.3 mph29.5 kmh 29.84 in1010.5 mb 0.00 in0.0 mm 0.00 in0.0 mm 0.00 in0.0 mm
05:20 PM 56.5°F13.6°C 50.7°F10.4°C 81% 15.1 mph SE24.3 kmh SE 24.4 mph39.3 kmh 29.83 in1010.2 mb 0.01 in0.3 mm 0.06 in1.5 mm 0.01 in0.3 mm
05:30 PM 55.9°F13.3°C 50.9°F10.5°C 83% 15.2 mph S24.5 kmh S 25.9 mph41.7 kmh 29.82 in1009.8 mb 0.02 in0.5 mm 0.06 in1.5 mm 0.02 in0.5 mm
05:40 PM 55.6°F13.1°C 50.8°F10.4°C 84% 15.6 mph S25.1 kmh S 22.8 mph36.7 kmh 29.80 in1009.1 mb 0.02 in0.5 mm 0.00 in0.0 mm 0.02 in0.5 mm
05:50 PM 55.2°F12.9°C 50.8°F10.4°C 85% 17.1 mph S27.5 kmh S 23.5 mph37.8 kmh 29.80 in1009.1 mb 0.05 in1.3 mm 0.18 in4.6 mm 0.05 in1.3 mm
06:00 PM 54.9°F12.7°C 51.1°F10.6°C 87% 19.3 mph SSW31.1 kmh SSW 29.8 mph48.0 kmh 29.79 in1008.8 mb 0.09 in2.3 mm 0.05 in1.3 mm 0.09 in2.3 mm
06:10 PM 54.3°F12.4°C 52.1°F11.2°C 92% 17.8 mph S28.6 kmh S 24.4 mph39.3 kmh 29.79 in1008.8 mb 0.12 in3.0 mm 0.18 in4.6 mm 0.12 in3.0 mm
06:20 PM 54.0°F12.2°C 51.7°F10.9°C 92% 16.8 mph SE27.0 kmh SE 24.4 mph39.3 kmh 29.78 in1008.5 mb 0.12 in3.0 mm 0.00 in0.0 mm 0.13 in3.3 mm
06:30 PM 53.8°F12.1°C 51.5°F10.8°C 92% 15.5 mph S24.9 kmh S 21.3 mph34.3 kmh 29.77 in1008.1 mb 0.12 in3.0 mm 0.00 in0.0 mm 0.14 in3.6 mm
06:40 PM 54.0°F12.2°C 52.0°F11.1°C 93% 15.2 mph S24.5 kmh S 21.3 mph34.3 kmh 29.77 in1008.1 mb 0.12 in3.0 mm 0.00 in0.0 mm 0.14 in3.6 mm
06:50 PM 54.7°F12.6°C 52.4°F11.3°C 92% 13.6 mph SSW21.9 kmh SSW 22.8 mph36.7 kmh 29.76 in1007.8 mb 0.11 in2.8 mm 0.00 in0.0 mm 0.15 in3.8 mm
07:00 PM 55.0°F12.8°C 53.1°F11.7°C 93% 15.1 mph S24.3 kmh S 21.3 mph34.3 kmh 29.75 in1007.5 mb 0.07 in1.8 mm 0.00 in0.0 mm 0.18 in4.6 mm
07:10 PM 55.2°F12.9°C 53.5°F11.9°C 94% 18.2 mph S29.3 kmh S 22.8 mph36.7 kmh 29.74 in1007.1 mb 0.07 in1.8 mm 0.00 in0.0 mm 0.19 in4.8 mm
07:20 PM 55.6°F13.1°C 53.9°F12.2°C 94% 17.7 mph S28.5 kmh S 25.1 mph40.4 kmh 29.75 in1007.5 mb 0.07 in1.8 mm 0.00 in0.0 mm 0.20 in5.1 mm
07:30 PM 56.1°F13.4°C 54.7°F12.6°C 95% 14.3 mph SSE23.0 kmh SSE 19.0 mph30.6 kmh 29.73 in1006.8 mb 0.06 in1.5 mm 0.00 in0.0 mm 0.20 in5.1 mm
07:40 PM 56.7°F13.7°C 55.5°F13.1°C 96% 15.3 mph S24.6 kmh S 20.6 mph33.2 kmh 29.72 in1006.4 mb 0.07 in1.8 mm 0.06 in1.5 mm 0.22 in5.6 mm
07:50 PM 57.2°F14.0°C 56.1°F13.4°C 96% 16.0 mph S25.7 kmh S 28.2 mph45.4 kmh 29.70 in1005.8 mb 0.07 in1.8 mm 0.00 in0.0 mm 0.22 in5.6 mm
08:00 PM 57.6°F14.2°C 56.7°F13.7°C 97% 14.9 mph SSW24.0 kmh SSW 23.5 mph37.8 kmh 29.69 in1005.4 mb 0.06 in1.5 mm 0.00 in0.0 mm 0.24 in6.1 mm
08:10 PM 58.1°F14.5°C 58.1°F14.5°C 100% 17.0 mph S27.4 kmh S 21.3 mph34.3 kmh 29.68 in1005.1 mb 0.05 in1.3 mm 0.00 in0.0 mm 0.24 in6.1 mm
08:20 PM 58.5°F14.7°C 58.5°F14.7°C 100% 17.5 mph SSW28.2 kmh SSW 27.3 mph43.9 kmh 29.68 in1005.1 mb 0.04 in1.0 mm 0.00 in0.0 mm 0.24 in6.1 mm
08:30 PM 58.8°F14.9°C 58.8°F14.9°C 100% 9.6 mph SSE15.4 kmh SSE 14.5 mph23.3 kmh 29.67 in1004.7 mb 0.04 in1.0 mm 0.00 in0.0 mm 0.24 in6.1 mm
08:40 PM 59.2°F15.1°C 58.9°F14.9°C 99% 12.7 mph S20.4 kmh S 17.4 mph28.0 kmh 29.66 in1004.4 mb 0.01 in0.3 mm 0.00 in0.0 mm 0.24 in6.1 mm
08:50 PM 59.5°F15.3°C 59.3°F15.2°C 99% 8.9 mph S14.3 kmh S 13.0 mph20.9 kmh 29.66 in1004.4 mb 0.01 in0.3 mm 0.00 in0.0 mm 0.24 in6.1 mm
09:00 PM 59.7°F15.4°C 59.5°F15.3°C 99% 12.1 mph S19.5 kmh S 24.4 mph39.3 kmh 29.65 in1004.1 mb 0.00 in0.0 mm 0.00 in0.0 mm 0.24 in6.1 mm
09:10 PM 60.1°F15.6°C 59.8°F15.4°C 99% 7.5 mph S12.1 kmh S 16.8 mph27.0 kmh 29.65 in1004.1 mb 0.00 in0.0 mm 0.00 in0.0 mm 0.24 in6.1 mm
09:20 PM 60.4°F15.8°C 60.2°F15.7°C 99% 10.7 mph W17.2 kmh W 17.4 mph28.0 kmh 29.66 in1004.4 mb 0.00 in0.0 mm 0.00 in0.0 mm 0.24 in6.1 mm
09:30 PM 60.4°F15.8°C 59.6°F15.3°C 97% 9.4 mph SSW15.1 kmh SSW 15.2 mph24.5 kmh 29.66 in1004.4 mb 0.00 in0.0 mm 0.00 in0.0 mm 0.24 in6.1 mm
09:40 PM 60.6°F15.9°C 58.9°F14.9°C 94% 11.2 mph SSW18.0 kmh SSW 22.1 mph35.6 kmh 29.65 in1004.1 mb 0.00 in0.0 mm 0.00 in0.0 mm 0.24 in6.1 mm
09:50 PM 60.4°F15.8°C 57.8°F14.3°C 91% 10.3 mph W16.6 kmh W 14.5 mph23.3 kmh 29.66 in1004.4 mb 0.00 in0.0 mm 0.00 in0.0 mm 0.24 in6.1 mm
10:00 PM 60.3°F15.7°C 57.3°F14.1°C 90% 9.6 mph W15.4 kmh W 13.6 mph21.9 kmh 29.66 in1004.4 mb 0.00 in0.0 mm 0.00 in0.0 mm 0.24 in6.1 mm
10:10 PM 59.9°F15.5°C 55.7°F13.2°C 86% 11.6 mph WSW18.7 kmh WSW 24.4 mph39.3 kmh 29.66 in1004.4 mb 0.01 in0.3 mm 0.06 in1.5 mm 0.25 in6.4 mm
10:20 PM 59.5°F15.3°C 53.7°F12.1°C 81% 13.4 mph SW21.6 kmh SW 22.1 mph35.6 kmh 29.66 in1004.4 mb 0.01 in0.3 mm 0.00 in0.0 mm 0.25 in6.4 mm
10:30 PM 59.2°F15.1°C 52.3°F11.3°C 78% 11.9 mph WSW19.2 kmh WSW 16.8 mph27.0 kmh 29.66 in1004.4 mb 0.01 in0.3 mm 0.00 in0.0 mm 0.25 in6.4 mm
10:40 PM 59.0°F15.0°C 52.2°F11.2°C 78% 10.9 mph SSE17.5 kmh SSE 13.6 mph21.9 kmh 29.66 in1004.4 mb 0.01 in0.3 mm 0.00 in0.0 mm 0.25 in6.4 mm
10:50 PM 59.0°F15.0°C 51.5°F10.8°C 76% 10.2 mph WSW16.4 kmh WSW 14.5 mph23.3 kmh 29.66 in1004.4 mb 0.01 in0.3 mm 0.00 in0.0 mm 0.25 in6.4 mm
11:00 PM 59.0°F15.0°C 50.7°F10.4°C 74% 12.0 mph NE19.3 kmh NE 19.0 mph30.6 kmh 29.66 in1004.4 mb 0.01 in0.3 mm 0.00 in0.0 mm 0.25 in6.4 mm
11:10 PM 58.8°F14.9°C 50.2°F10.1°C 73% 13.0 mph SSW20.9 kmh SSW 19.0 mph30.6 kmh 29.65 in1004.1 mb 0.00 in0.0 mm 0.00 in0.0 mm 0.25 in6.4 mm
11:20 PM 58.6°F14.8°C 50.0°F10.0°C 73% 11.7 mph WSW18.8 kmh WSW 16.8 mph27.0 kmh 29.65 in1004.1 mb 0.00 in0.0 mm 0.00 in0.0 mm 0.25 in6.4 mm
11:30 PM 58.6°F14.8°C 49.7°F9.8°C 72% 11.9 mph WSW19.2 kmh WSW 22.1 mph35.6 kmh 29.65 in1004.1 mb 0.00 in0.0 mm 0.00 in0.0 mm 0.25 in6.4 mm
11:40 PM 58.6°F14.8°C 50.0°F10.0°C 73% 10.8 mph WSW17.4 kmh WSW 16.8 mph27.0 kmh 29.65 in1004.1 mb 0.00 in0.0 mm 0.00 in0.0 mm 0.25 in6.4 mm
11:50 PM 58.8°F14.9°C 50.2°F10.1°C 73% 11.7 mph SSW18.8 kmh SSW 15.9 mph25.6 kmh 29.65 in1004.1 mb 0.00 in0.0 mm 0.00 in0.0 mm 0.25 in6.4 mm